MCO weather

Orlando International Airport
Orlando, Florida, United States

Public forecast

Using degrees Fahrenheit for public forecast. Weather courtesy of forecast.io.

METAR (pilot weather report)

Retrieved 2017/03/24 20:53 UTC (58 minutes ago):

KMCO 242053Z 09015G25KT 10SM FEW041 BKN070 24/13 A3027

TAF (pilot weather forecast)

Retrieved 2017/03/24 18:42 UTC (3 hours ago):

TAF KMCO 241737Z 2418/2518 08015G22KT P6SM SCT040 BKN060 FM250000 07006KT P6SM SCT035 FM251500 11012KT P6SM SCT040